sensor_id;sensor_type;location;lat;lon;timestamp;temperature;humidity
76211;DHT22;65003;49.518;11.280;2023-02-01T00:00:30;5.20;90.60
76211;DHT22;65003;49.518;11.280;2023-02-01T00:02:57;5.20;90.90
76211;DHT22;65003;49.518;11.280;2023-02-01T00:05:23;5.20;90.90
76211;DHT22;65003;49.518;11.280;2023-02-01T00:07:50;5.20;91.20
76211;DHT22;65003;49.518;11.280;2023-02-01T00:10:17;5.20;91.30
76211;DHT22;65003;49.518;11.280;2023-02-01T00:12:43;5.10;91.80
76211;DHT22;65003;49.518;11.280;2023-02-01T00:15:10;5.00;91.90
76211;DHT22;65003;49.518;11.280;2023-02-01T00:17:36;5.00;92.00
76211;DHT22;65003;49.518;11.280;2023-02-01T00:20:03;5.10;92.00
76211;DHT22;65003;49.518;11.280;2023-02-01T00:22:30;5.10;92.30
76211;DHT22;65003;49.518;11.280;2023-02-01T00:24:56;5.10;92.20
76211;DHT22;65003;49.518;11.280;2023-02-01T00:27:23;5.10;92.30
76211;DHT22;65003;49.518;11.280;2023-02-01T00:29:49;5.00;92.40
76211;DHT22;65003;49.518;11.280;2023-02-01T00:32:16;5.00;92.50
76211;DHT22;65003;49.518;11.280;2023-02-01T00:34:43;5.00;92.60
76211;DHT22;65003;49.518;11.280;2023-02-01T00:37:09;4.90;92.80
76211;DHT22;65003;49.518;11.280;2023-02-01T00:39:36;4.90;92.90
76211;DHT22;65003;49.518;11.280;2023-02-01T00:42:02;5.00;92.90
76211;DHT22;65003;49.518;11.280;2023-02-01T00:44:29;5.00;92.80
76211;DHT22;65003;49.518;11.280;2023-02-01T00:46:56;5.00;92.80
76211;DHT22;65003;49.518;11.280;2023-02-01T00:49:22;5.00;92.80
76211;DHT22;65003;49.518;11.280;2023-02-01T00:51:49;5.00;92.90
76211;DHT22;65003;49.518;11.280;2023-02-01T00:54:15;5.10;92.80
76211;DHT22;65003;49.518;11.280;2023-02-01T00:56:42;5.10;92.70
76211;DHT22;65003;49.518;11.280;2023-02-01T00:59:11;5.20;92.80
76211;DHT22;65003;49.518;11.280;2023-02-01T01:01:38;5.00;92.90
76211;DHT22;65003;49.518;11.280;2023-02-01T01:04:04;5.00;92.80
76211;DHT22;65003;49.518;11.280;2023-02-01T01:06:32;5.00;92.70
76211;DHT22;65003;49.518;11.280;2023-02-01T01:08:58;5.10;92.60
76211;DHT22;65003;49.518;11.280;2023-02-01T01:11:25;5.10;92.60
76211;DHT22;65003;49.518;11.280;2023-02-01T01:13:51;5.10;92.50
76211;DHT22;65003;49.518;11.280;2023-02-01T01:16:18;5.10;92.50
76211;DHT22;65003;49.518;11.280;2023-02-01T01:18:44;5.10;92.50
76211;DHT22;65003;49.518;11.280;2023-02-01T01:21:11;5.00;92.60
76211;DHT22;65003;49.518;11.280;2023-02-01T01:23:37;5.10;92.60
76211;DHT22;65003;49.518;11.280;2023-02-01T01:26:06;5.10;92.40
76211;DHT22;65003;49.518;11.280;2023-02-01T01:28:32;5.20;92.40
76211;DHT22;65003;49.518;11.280;2023-02-01T01:30:59;5.20;92.20
76211;DHT22;65003;49.518;11.280;2023-02-01T01:33:26;5.20;92.30
76211;DHT22;65003;49.518;11.280;2023-02-01T01:35:52;5.20;92.80
76211;DHT22;65003;49.518;11.280;2023-02-01T01:38:19;5.20;92.40
76211;DHT22;65003;49.518;11.280;2023-02-01T01:40:46;5.20;92.30
76211;DHT22;65003;49.518;11.280;2023-02-01T01:43:14;5.20;92.30
76211;DHT22;65003;49.518;11.280;2023-02-01T01:45:40;5.30;92.50
76211;DHT22;65003;49.518;11.280;2023-02-01T01:48:08;5.20;92.40
76211;DHT22;65003;49.518;11.280;2023-02-01T01:50:35;5.20;92.60
76211;DHT22;65003;49.518;11.280;2023-02-01T01:53:00;5.20;92.60
76211;DHT22;65003;49.518;11.280;2023-02-01T01:55:27;5.20;92.50
76211;DHT22;65003;49.518;11.280;2023-02-01T01:58:00;5.20;92.60
76211;DHT22;65003;49.518;11.280;2023-02-01T02:00:25;5.10;92.80
76211;DHT22;65003;49.518;11.280;2023-02-01T02:02:55;5.10;92.90
76211;DHT22;65003;49.518;11.280;2023-02-01T02:05:19;5.10;92.90
76211;DHT22;65003;49.518;11.280;2023-02-01T02:07:46;5.10;93.00
76211;DHT22;65003;49.518;11.280;2023-02-01T02:10:13;5.00;92.90
76211;DHT22;65003;49.518;11.280;2023-02-01T02:12:40;5.00;93.00
76211;DHT22;65003;49.518;11.280;2023-02-01T02:15:08;5.00;93.00
76211;DHT22;65003;49.518;11.280;2023-02-01T02:17:39;5.00;93.10
76211;DHT22;65003;49.518;11.280;2023-02-01T02:20:22;5.00;93.00
76211;DHT22;65003;49.518;11.280;2023-02-01T02:25:49;5.00;93.00
76211;DHT22;65003;49.518;11.280;2023-02-01T02:28:51;5.00;93.00
76211;DHT22;65003;49.518;11.280;2023-02-01T02:34:24;5.10;92.80
76211;DHT22;65003;49.518;11.280;2023-02-01T02:39:48;5.10;92.70
76211;DHT22;65003;49.518;11.280;2023-02-01T02:42:18;5.10;92.70
76211;DHT22;65003;49.518;11.280;2023-02-01T02:44:50;5.10;92.60
76211;DHT22;65003;49.518;11.280;2023-02-01T02:47:27;5.10;92.70
76211;DHT22;65003;49.518;11.280;2023-02-01T02:50:05;5.10;92.60
76211;DHT22;65003;49.518;11.280;2023-02-01T02:52:41;5.20;92.40
76211;DHT22;65003;49.518;11.280;2023-02-01T02:55:11;5.20;92.50
76211;DHT22;65003;49.518;11.280;2023-02-01T02:57:38;5.20;92.50
76211;DHT22;65003;49.518;11.280;2023-02-01T03:00:12;5.10;92.40
76211;DHT22;65003;49.518;11.280;2023-02-01T03:02:43;5.10;92.30
76211;DHT22;65003;49.518;11.280;2023-02-01T03:05:15;5.00;92.50
76211;DHT22;65003;49.518;11.280;2023-02-01T03:07:49;5.10;92.50
76211;DHT22;65003;49.518;11.280;2023-02-01T03:10:26;5.20;92.30
76211;DHT22;65003;49.518;11.280;2023-02-01T03:12:50;5.20;92.20
76211;DHT22;65003;49.518;11.280;2023-02-01T03:17:50;5.20;92.10
76211;DHT22;65003;49.518;11.280;2023-02-01T03:20:17;5.20;92.30
76211;DHT22;65003;49.518;11.280;2023-02-01T03:22:43;5.30;92.00
76211;DHT22;65003;49.518;11.280;2023-02-01T03:25:12;5.30;92.10
76211;DHT22;65003;49.518;11.280;2023-02-01T03:27:41;5.30;92.10
76211;DHT22;65003;49.518;11.280;2023-02-01T03:30:24;5.30;91.90
76211;DHT22;65003;49.518;11.280;2023-02-01T03:32:51;5.30;92.10
76211;DHT22;65003;49.518;11.280;2023-02-01T03:38:21;5.30;92.00
76211;DHT22;65003;49.518;11.280;2023-02-01T03:40:46;5.30;92.00
76211;DHT22;65003;49.518;11.280;2023-02-01T03:43:14;5.40;91.90
76211;DHT22;65003;49.518;11.280;2023-02-01T03:45:41;5.30;91.90
76211;DHT22;65003;49.518;11.280;2023-02-01T03:48:06;5.30;92.10
76211;DHT22;65003;49.518;11.280;2023-02-01T03:50:32;5.30;92.10
76211;DHT22;65003;49.518;11.280;2023-02-01T03:53:07;5.30;92.20
76211;DHT22;65003;49.518;11.280;2023-02-01T03:55:33;5.20;92.10
76211;DHT22;65003;49.518;11.280;2023-02-01T04:00:35;5.20;92.20
76211;DHT22;65003;49.518;11.280;2023-02-01T04:03:02;5.20;92.30
76211;DHT22;65003;49.518;11.280;2023-02-01T04:05:28;5.30;92.20
76211;DHT22;65003;49.518;11.280;2023-02-01T04:07:55;5.30;92.10
76211;DHT22;65003;49.518;11.280;2023-02-01T04:10:21;5.20;92.10
76211;DHT22;65003;49.518;11.280;2023-02-01T04:12:48;5.10;92.30
76211;DHT22;65003;49.518;11.280;2023-02-01T04:15:15;5.10;92.40
76211;DHT22;65003;49.518;11.280;2023-02-01T04:17:41;5.20;92.30
76211;DHT22;65003;49.518;11.280;2023-02-01T04:20:09;5.20;92.20
76211;DHT22;65003;49.518;11.280;2023-02-01T04:22:36;5.20;92.20
76211;DHT22;65003;49.518;11.280;2023-02-01T04:25:04;5.20;92.30
76211;DHT22;65003;49.518;11.280;2023-02-01T04:27:30;5.20;92.20
76211;DHT22;65003;49.518;11.280;2023-02-01T04:29:57;5.30;92.30
76211;DHT22;65003;49.518;11.280;2023-02-01T04:32:23;5.30;92.00
76211;DHT22;65003;49.518;11.280;2023-02-01T04:34:50;5.30;92.00
76211;DHT22;65003;49.518;11.280;2023-02-01T04:37:17;5.40;92.10
76211;DHT22;65003;49.518;11.280;2023-02-01T04:39:43;5.30;92.20
76211;DHT22;65003;49.518;11.280;2023-02-01T04:42:10;5.30;92.30
76211;DHT22;65003;49.518;11.280;2023-02-01T04:44:36;5.30;92.50
76211;DHT22;65003;49.518;11.280;2023-02-01T04:47:03;5.30;92.50
76211;DHT22;65003;49.518;11.280;2023-02-01T04:49:30;4.50;92.40
76211;DHT22;65003;49.518;11.280;2023-02-01T04:51:56;5.30;92.40
76211;DHT22;65003;49.518;11.280;2023-02-01T04:54:23;5.20;92.50
76211;DHT22;65003;49.518;11.280;2023-02-01T04:56:49;5.20;92.70
76211;DHT22;65003;49.518;11.280;2023-02-01T04:59:16;5.10;93.10
76211;DHT22;65003;49.518;11.280;2023-02-01T05:01:42;5.10;92.80
76211;DHT22;65003;49.518;11.280;2023-02-01T05:04:09;5.00;93.00
76211;DHT22;65003;49.518;11.280;2023-02-01T05:06:36;5.00;93.10
76211;DHT22;65003;49.518;11.280;2023-02-01T05:09:02;4.90;93.10
76211;DHT22;65003;49.518;11.280;2023-02-01T05:11:29;4.80;93.30
76211;DHT22;65003;49.518;11.280;2023-02-01T05:14:01;4.80;93.50
76211;DHT22;65003;49.518;11.280;2023-02-01T05:16:28;4.80;93.60
76211;DHT22;65003;49.518;11.280;2023-02-01T05:18:54;4.80;93.70
76211;DHT22;65003;49.518;11.280;2023-02-01T05:21:21;4.80;93.70
76211;DHT22;65003;49.518;11.280;2023-02-01T05:23:47;4.80;93.50
76211;DHT22;65003;49.518;11.280;2023-02-01T05:26:35;4.80;93.60
76211;DHT22;65003;49.518;11.280;2023-02-01T05:29:02;4.80;93.70
76211;DHT22;65003;49.518;11.280;2023-02-01T05:31:28;4.80;93.70
76211;DHT22;65003;49.518;11.280;2023-02-01T05:33:54;4.80;93.80
76211;DHT22;65003;49.518;11.280;2023-02-01T05:36:21;4.80;93.80
76211;DHT22;65003;49.518;11.280;2023-02-01T05:38:48;4.80;93.90
76211;DHT22;65003;49.518;11.280;2023-02-01T05:41:14;4.70;93.70
76211;DHT22;65003;49.518;11.280;2023-02-01T05:43:41;4.70;93.90
76211;DHT22;65003;49.518;11.280;2023-02-01T05:46:07;4.60;94.00
76211;DHT22;65003;49.518;11.280;2023-02-01T05:48:34;4.60;94.20
76211;DHT22;65003;49.518;11.280;2023-02-01T05:51:01;4.60;94.20
76211;DHT22;65003;49.518;11.280;2023-02-01T05:53:27;4.60;94.00
76211;DHT22;65003;49.518;11.280;2023-02-01T05:55:54;4.80;95.60
76211;DHT22;65003;49.518;11.280;2023-02-01T05:58:20;5.00;95.40
76211;DHT22;65003;49.518;11.280;2023-02-01T06:00:47;5.20;94.30
76211;DHT22;65003;49.518;11.280;2023-02-01T06:03:14;5.30;93.60
76211;DHT22;65003;49.518;11.280;2023-02-01T06:05:40;5.30;93.20
76211;DHT22;65003;49.518;11.280;2023-02-01T06:08:07;5.40;93.20
76211;DHT22;65003;49.518;11.280;2023-02-01T06:10:33;5.40;92.70
76211;DHT22;65003;49.518;11.280;2023-02-01T06:13:00;5.40;92.70
76211;DHT22;65003;49.518;11.280;2023-02-01T06:15:27;5.50;93.40
76211;DHT22;65003;49.518;11.280;2023-02-01T06:17:53;5.70;92.10
76211;DHT22;65003;49.518;11.280;2023-02-01T06:20:20;5.70;91.80
76211;DHT22;65003;49.518;11.280;2023-02-01T06:22:46;5.50;91.50
76211;DHT22;65003;49.518;11.280;2023-02-01T06:25:13;5.40;91.70
76211;DHT22;65003;49.518;11.280;2023-02-01T06:27:39;5.30;91.90
76211;DHT22;65003;49.518;11.280;2023-02-01T06:30:07;5.10;92.00
76211;DHT22;65003;49.518;11.280;2023-02-01T06:32:34;5.00;92.30
76211;DHT22;65003;49.518;11.280;2023-02-01T06:35:00;5.00;92.50
76211;DHT22;65003;49.518;11.280;2023-02-01T06:37:27;4.90;92.40
76211;DHT22;65003;49.518;11.280;2023-02-01T06:39:53;4.90;92.70
76211;DHT22;65003;49.518;11.280;2023-02-01T06:42:20;4.80;92.80
76211;DHT22;65003;49.518;11.280;2023-02-01T06:44:47;4.70;92.90
76211;DHT22;65003;49.518;11.280;2023-02-01T06:47:13;4.60;93.20
76211;DHT22;65003;49.518;11.280;2023-02-01T06:49:40;4.60;93.40
76211;DHT22;65003;49.518;11.280;2023-02-01T06:52:06;4.60;93.30
76211;DHT22;65003;49.518;11.280;2023-02-01T06:54:33;4.60;93.20
76211;DHT22;65003;49.518;11.280;2023-02-01T06:57:00;4.60;93.30
76211;DHT22;65003;49.518;11.280;2023-02-01T06:59:26;4.70;93.20
76211;DHT22;65003;49.518;11.280;2023-02-01T07:01:53;4.70;93.10
76211;DHT22;65003;49.518;11.280;2023-02-01T07:04:19;4.80;93.10
76211;DHT22;65003;49.518;11.280;2023-02-01T07:06:46;4.70;93.00
76211;DHT22;65003;49.518;11.280;2023-02-01T07:09:13;4.80;93.10
76211;DHT22;65003;49.518;11.280;2023-02-01T07:11:39;4.70;93.00
76211;DHT22;65003;49.518;11.280;2023-02-01T07:14:06;4.70;93.20
76211;DHT22;65003;49.518;11.280;2023-02-01T07:16:33;4.70;93.20
76211;DHT22;65003;49.518;11.280;2023-02-01T07:18:59;4.60;93.20
76211;DHT22;65003;49.518;11.280;2023-02-01T07:21:26;4.60;93.30
76211;DHT22;65003;49.518;11.280;2023-02-01T07:23:53;4.60;93.30
76211;DHT22;65003;49.518;11.280;2023-02-01T07:26:21;4.70;93.30
76211;DHT22;65003;49.518;11.280;2023-02-01T07:28:46;4.70;93.30
76211;DHT22;65003;49.518;11.280;2023-02-01T07:31:13;4.70;93.30
76211;DHT22;65003;49.518;11.280;2023-02-01T07:33:40;4.70;93.30
76211;DHT22;65003;49.518;11.280;2023-02-01T07:36:07;4.70;93.30
76211;DHT22;65003;49.518;11.280;2023-02-01T07:38:33;4.70;93.30
76211;DHT22;65003;49.518;11.280;2023-02-01T07:41:01;4.70;93.40
76211;DHT22;65003;49.518;11.280;2023-02-01T07:43:27;4.70;93.40
76211;DHT22;65003;49.518;11.280;2023-02-01T07:45:53;4.80;93.40
76211;DHT22;65003;49.518;11.280;2023-02-01T07:48:20;4.80;93.20
76211;DHT22;65003;49.518;11.280;2023-02-01T07:50:46;4.80;93.20
76211;DHT22;65003;49.518;11.280;2023-02-01T07:53:13;4.90;93.10
76211;DHT22;65003;49.518;11.280;2023-02-01T07:55:40;4.80;93.40
76211;DHT22;65003;49.518;11.280;2023-02-01T07:58:06;4.90;93.40
76211;DHT22;65003;49.518;11.280;2023-02-01T08:00:33;4.90;93.30
76211;DHT22;65003;49.518;11.280;2023-02-01T08:03:05;5.00;93.10
76211;DHT22;65003;49.518;11.280;2023-02-01T08:05:31;5.10;93.00
76211;DHT22;65003;49.518;11.280;2023-02-01T08:07:58;5.10;92.90
76211;DHT22;65003;49.518;11.280;2023-02-01T08:10:25;5.20;92.80
76211;DHT22;65003;49.518;11.280;2023-02-01T08:12:57;5.20;92.90
76211;DHT22;65003;49.518;11.280;2023-02-01T08:15:18;5.30;92.80
76211;DHT22;65003;49.518;11.280;2023-02-01T08:17:48;5.40;92.40
76211;DHT22;65003;49.518;11.280;2023-02-01T08:20:14;5.40;92.30
76211;DHT22;65003;49.518;11.280;2023-02-01T08:22:41;5.40;92.20
76211;DHT22;65003;49.518;11.280;2023-02-01T08:25:08;5.30;92.40
76211;DHT22;65003;49.518;11.280;2023-02-01T08:27:35;5.30;92.40
76211;DHT22;65003;49.518;11.280;2023-02-01T08:30:02;5.30;92.50
76211;DHT22;65003;49.518;11.280;2023-02-01T08:32:28;5.40;92.40
76211;DHT22;65003;49.518;11.280;2023-02-01T08:34:54;5.40;92.40
76211;DHT22;65003;49.518;11.280;2023-02-01T08:37:21;5.30;92.50
76211;DHT22;65003;49.518;11.280;2023-02-01T08:39:48;5.30;92.40
76211;DHT22;65003;49.518;11.280;2023-02-01T08:42:14;5.30;92.50
76211;DHT22;65003;49.518;11.280;2023-02-01T08:44:46;5.40;92.40
76211;DHT22;65003;49.518;11.280;2023-02-01T08:47:13;5.40;92.20
76211;DHT22;65003;49.518;11.280;2023-02-01T08:49:40;5.40;92.20
76211;DHT22;65003;49.518;11.280;2023-02-01T08:52:06;5.40;92.20
76211;DHT22;65003;49.518;11.280;2023-02-01T08:54:33;5.40;92.20
76211;DHT22;65003;49.518;11.280;2023-02-01T08:56:59;5.40;92.20
76211;DHT22;65003;49.518;11.280;2023-02-01T08:59:27;5.50;91.80
76211;DHT22;65003;49.518;11.280;2023-02-01T09:01:53;5.50;91.60
76211;DHT22;65003;49.518;11.280;2023-02-01T09:04:20;5.50;91.90
76211;DHT22;65003;49.518;11.280;2023-02-01T09:06:46;5.40;92.10
76211;DHT22;65003;49.518;11.280;2023-02-01T09:09:13;5.50;92.20
76211;DHT22;65003;49.518;11.280;2023-02-01T09:11:40;5.90;91.60
76211;DHT22;65003;49.518;11.280;2023-02-01T09:14:06;6.20;91.10
76211;DHT22;65003;49.518;11.280;2023-02-01T09:16:33;6.60;90.30
76211;DHT22;65003;49.518;11.280;2023-02-01T09:18:59;6.70;89.50
76211;DHT22;65003;49.518;11.280;2023-02-01T09:21:26;6.50;89.50
76211;DHT22;65003;49.518;11.280;2023-02-01T09:23:53;6.50;90.00
76211;DHT22;65003;49.518;11.280;2023-02-01T09:26:19;6.40;90.30
76211;DHT22;65003;49.518;11.280;2023-02-01T09:28:46;6.30;90.10
76211;DHT22;65003;49.518;11.280;2023-02-01T09:31:12;6.10;90.30
76211;DHT22;65003;49.518;11.280;2023-02-01T09:33:39;6.00;90.50
76211;DHT22;65003;49.518;11.280;2023-02-01T09:36:06;5.90;90.60
76211;DHT22;65003;49.518;11.280;2023-02-01T09:38:33;5.90;90.50
76211;DHT22;65003;49.518;11.280;2023-02-01T09:40:59;5.90;90.70
76211;DHT22;65003;49.518;11.280;2023-02-01T09:46:23;6.10;90.50
76211;DHT22;65003;49.518;11.280;2023-02-01T09:48:48;6.00;90.40
76211;DHT22;65003;49.518;11.280;2023-02-01T09:51:19;5.90;90.10
76211;DHT22;65003;49.518;11.280;2023-02-01T09:53:44;5.80;90.30
76211;DHT22;65003;49.518;11.280;2023-02-01T09:56:14;5.80;90.30
76211;DHT22;65003;49.518;11.280;2023-02-01T09:58:42;5.80;90.40
76211;DHT22;65003;49.518;11.280;2023-02-01T10:01:15;5.80;89.40
76211;DHT22;65003;49.518;11.280;2023-02-01T10:03:40;5.90;89.10
76211;DHT22;65003;49.518;11.280;2023-02-01T10:09:08;6.30;86.10
76211;DHT22;65003;49.518;11.280;2023-02-01T10:11:41;6.40;85.60
76211;DHT22;65003;49.518;11.280;2023-02-01T10:14:12;6.70;83.60
76211;DHT22;65003;49.518;11.280;2023-02-01T10:16:44;7.00;83.70
76211;DHT22;65003;49.518;11.280;2023-02-01T10:19:15;7.40;81.90
76211;DHT22;65003;49.518;11.280;2023-02-01T10:22:02;7.40;81.10
76211;DHT22;65003;49.518;11.280;2023-02-01T10:24:41;7.20;80.40
76211;DHT22;65003;49.518;11.280;2023-02-01T10:27:13;6.90;82.40
76211;DHT22;65003;49.518;11.280;2023-02-01T10:29:41;6.70;82.90
76211;DHT22;65003;49.518;11.280;2023-02-01T10:32:11;6.60;83.40
76211;DHT22;65003;49.518;11.280;2023-02-01T10:34:36;6.40;83.50
76211;DHT22;65003;49.518;11.280;2023-02-01T10:37:18;6.30;84.20
76211;DHT22;65003;49.518;11.280;2023-02-01T10:39:46;6.20;85.20
76211;DHT22;65003;49.518;11.280;2023-02-01T10:42:12;6.20;84.60
76211;DHT22;65003;49.518;11.280;2023-02-01T10:44:40;6.10;85.20
76211;DHT22;65003;49.518;11.280;2023-02-01T10:47:07;6.20;86.40
76211;DHT22;65003;49.518;11.280;2023-02-01T10:49:37;6.20;86.70
76211;DHT22;65003;49.518;11.280;2023-02-01T10:52:12;6.10;87.40
76211;DHT22;65003;49.518;11.280;2023-02-01T10:54:42;5.90;89.10
76211;DHT22;65003;49.518;11.280;2023-02-01T10:57:08;5.80;89.80
76211;DHT22;65003;49.518;11.280;2023-02-01T10:59:34;5.80;90.50
76211;DHT22;65003;49.518;11.280;2023-02-01T11:02:01;5.70;90.80
76211;DHT22;65003;49.518;11.280;2023-02-01T11:04:27;5.40;91.00
76211;DHT22;65003;49.518;11.280;2023-02-01T11:07:03;5.30;91.30
76211;DHT22;65003;49.518;11.280;2023-02-01T11:09:22;5.30;91.50
76211;DHT22;65003;49.518;11.280;2023-02-01T11:11:57;5.40;91.60
76211;DHT22;65003;49.518;11.280;2023-02-01T11:14:32;5.50;91.50
76211;DHT22;65003;49.518;11.280;2023-02-01T11:16:55;5.60;91.60
76211;DHT22;65003;49.518;11.280;2023-02-01T11:19:21;5.70;91.50
76211;DHT22;65003;49.518;11.280;2023-02-01T11:21:51;5.60;91.20
76211;DHT22;65003;49.518;11.280;2023-02-01T11:24:22;5.60;91.50
76211;DHT22;65003;49.518;11.280;2023-02-01T11:26:49;5.60;91.50
76211;DHT22;65003;49.518;11.280;2023-02-01T11:29:17;5.70;91.80
76211;DHT22;65003;49.518;11.280;2023-02-01T11:31:42;5.70;91.40
76211;DHT22;65003;49.518;11.280;2023-02-01T11:34:14;5.70;91.40
76211;DHT22;65003;49.518;11.280;2023-02-01T11:36:39;5.70;91.70
76211;DHT22;65003;49.518;11.280;2023-02-01T11:39:23;5.60;91.70
76211;DHT22;65003;49.518;11.280;2023-02-01T11:42:15;5.50;91.70
76211;DHT22;65003;49.518;11.280;2023-02-01T11:44:42;5.40;92.20
76211;DHT22;65003;49.518;11.280;2023-02-01T11:47:19;5.40;92.60
76211;DHT22;65003;49.518;11.280;2023-02-01T11:49:44;5.50;92.10
76211;DHT22;65003;49.518;11.280;2023-02-01T11:55:24;5.60;91.80
76211;DHT22;65003;49.518;11.280;2023-02-01T11:57:59;5.70;91.80
76211;DHT22;65003;49.518;11.280;2023-02-01T12:00:35;5.70;91.60
76211;DHT22;65003;49.518;11.280;2023-02-01T12:03:29;5.70;91.70
76211;DHT22;65003;49.518;11.280;2023-02-01T12:05:58;5.80;91.30
76211;DHT22;65003;49.518;11.280;2023-02-01T12:11:30;6.00;91.30
76211;DHT22;65003;49.518;11.280;2023-02-01T12:13:58;6.10;91.00
76211;DHT22;65003;49.518;11.280;2023-02-01T12:22:14;6.30;90.40
76211;DHT22;65003;49.518;11.280;2023-02-01T12:25:20;6.20;90.40
76211;DHT22;65003;49.518;11.280;2023-02-01T12:27:37;6.10;90.50
76211;DHT22;65003;49.518;11.280;2023-02-01T12:33:10;6.10;90.30
76211;DHT22;65003;49.518;11.280;2023-02-01T12:35:38;6.00;90.60
76211;DHT22;65003;49.518;11.280;2023-02-01T12:38:21;6.00;90.70
76211;DHT22;65003;49.518;11.280;2023-02-01T12:47:18;6.10;90.80
76211;DHT22;65003;49.518;11.280;2023-02-01T12:48:57;6.00;90.00
76211;DHT22;65003;49.518;11.280;2023-02-01T12:51:31;5.90;90.20
76211;DHT22;65003;49.518;11.280;2023-02-01T12:54:06;5.80;90.40
76211;DHT22;65003;49.518;11.280;2023-02-01T12:56:35;5.80;90.60
76211;DHT22;65003;49.518;11.280;2023-02-01T12:59:02;5.50;91.00
76211;DHT22;65003;49.518;11.280;2023-02-01T13:01:39;5.20;91.60
76211;DHT22;65003;49.518;11.280;2023-02-01T13:04:11;4.90;92.30
76211;DHT22;65003;49.518;11.280;2023-02-01T13:06:37;4.80;93.00
76211;DHT22;65003;49.518;11.280;2023-02-01T13:09:05;4.70;93.20
76211;DHT22;65003;49.518;11.280;2023-02-01T13:11:33;4.50;93.10
76211;DHT22;65003;49.518;11.280;2023-02-01T13:14:02;4.30;93.40
76211;DHT22;65003;49.518;11.280;2023-02-01T13:16:30;4.30;93.50
76211;DHT22;65003;49.518;11.280;2023-02-01T13:19:05;4.40;93.50
76211;DHT22;65003;49.518;11.280;2023-02-01T13:21:33;4.50;93.50
76211;DHT22;65003;49.518;11.280;2023-02-01T13:23:58;4.60;93.40
76211;DHT22;65003;49.518;11.280;2023-02-01T13:26:25;4.80;93.30
76211;DHT22;65003;49.518;11.280;2023-02-01T13:28:59;4.80;93.20
76211;DHT22;65003;49.518;11.280;2023-02-01T13:31:33;4.80;93.20
76211;DHT22;65003;49.518;11.280;2023-02-01T13:36:41;4.90;93.10
76211;DHT22;65003;49.518;11.280;2023-02-01T13:39:25;5.00;92.60
76211;DHT22;65003;49.518;11.280;2023-02-01T13:41:52;5.10;92.30
76211;DHT22;65003;49.518;11.280;2023-02-01T13:44:28;5.20;91.90
76211;DHT22;65003;49.518;11.280;2023-02-01T13:46:57;5.40;91.90
76211;DHT22;65003;49.518;11.280;2023-02-01T13:49:24;5.40;91.70
76211;DHT22;65003;49.518;11.280;2023-02-01T13:51:51;5.50;91.60
76211;DHT22;65003;49.518;11.280;2023-02-01T13:54:24;5.50;91.40
76211;DHT22;65003;49.518;11.280;2023-02-01T13:56:49;5.50;91.40
76211;DHT22;65003;49.518;11.280;2023-02-01T14:04:59;5.40;91.40
76211;DHT22;65003;49.518;11.280;2023-02-01T14:07:26;5.40;91.20
76211;DHT22;65003;49.518;11.280;2023-02-01T14:09:52;5.50;91.20
76211;DHT22;65003;49.518;11.280;2023-02-01T14:15:22;5.60;90.90
76211;DHT22;65003;49.518;11.280;2023-02-01T14:17:47;5.70;90.50
76211;DHT22;65003;49.518;11.280;2023-02-01T14:22:59;5.70;90.30
76211;DHT22;65003;49.518;11.280;2023-02-01T14:25:19;5.60;90.00
76211;DHT22;65003;49.518;11.280;2023-02-01T14:27:46;5.60;89.20
76211;DHT22;65003;49.518;11.280;2023-02-01T14:30:14;5.70;89.50
76211;DHT22;65003;49.518;11.280;2023-02-01T14:32:40;5.70;89.40
76211;DHT22;65003;49.518;11.280;2023-02-01T14:35:07;5.60;89.00
76211;DHT22;65003;49.518;11.280;2023-02-01T14:37:33;5.60;88.90
76211;DHT22;65003;49.518;11.280;2023-02-01T14:40:01;5.60;89.00
76211;DHT22;65003;49.518;11.280;2023-02-01T14:42:28;4.30;88.20
76211;DHT22;65003;49.518;11.280;2023-02-01T14:44:55;5.60;88.60
76211;DHT22;65003;49.518;11.280;2023-02-01T14:47:30;5.60;88.10
76211;DHT22;65003;49.518;11.280;2023-02-01T14:49:57;5.60;88.60
76211;DHT22;65003;49.518;11.280;2023-02-01T14:52:29;5.50;88.10
76211;DHT22;65003;49.518;11.280;2023-02-01T14:54:52;5.50;88.70
76211;DHT22;65003;49.518;11.280;2023-02-01T14:57:16;5.50;88.80
76211;DHT22;65003;49.518;11.280;2023-02-01T14:59:44;5.50;88.80
76211;DHT22;65003;49.518;11.280;2023-02-01T15:02:18;5.60;88.80
76211;DHT22;65003;49.518;11.280;2023-02-01T15:04:44;5.60;87.30
76211;DHT22;65003;49.518;11.280;2023-02-01T15:07:11;5.70;87.90
76211;DHT22;65003;49.518;11.280;2023-02-01T15:09:42;5.70;88.10
76211;DHT22;65003;49.518;11.280;2023-02-01T15:12:17;5.70;87.40
76211;DHT22;65003;49.518;11.280;2023-02-01T15:14:47;5.70;87.20
76211;DHT22;65003;49.518;11.280;2023-02-01T15:17:20;5.60;86.90
76211;DHT22;65003;49.518;11.280;2023-02-01T15:19:53;5.50;87.40
76211;DHT22;65003;49.518;11.280;2023-02-01T15:22:19;5.50;87.80
76211;DHT22;65003;49.518;11.280;2023-02-01T15:24:51;5.50;87.60
76211;DHT22;65003;49.518;11.280;2023-02-01T15:27:12;5.50;87.60
76211;DHT22;65003;49.518;11.280;2023-02-01T15:29:39;5.50;86.80
76211;DHT22;65003;49.518;11.280;2023-02-01T15:32:05;5.30;87.50
76211;DHT22;65003;49.518;11.280;2023-02-01T15:34:45;5.60;87.40
76211;DHT22;65003;49.518;11.280;2023-02-01T15:37:12;5.60;87.40
76211;DHT22;65003;49.518;11.280;2023-02-01T15:39:38;5.60;86.90
76211;DHT22;65003;49.518;11.280;2023-02-01T15:42:10;5.70;86.70
76211;DHT22;65003;49.518;11.280;2023-02-01T15:44:40;5.70;86.40
76211;DHT22;65003;49.518;11.280;2023-02-01T15:47:08;5.70;86.80
76211;DHT22;65003;49.518;11.280;2023-02-01T15:49:36;5.80;86.60
76211;DHT22;65003;49.518;11.280;2023-02-01T15:52:00;5.80;86.40
76211;DHT22;65003;49.518;11.280;2023-02-01T15:54:37;5.80;86.60
76211;DHT22;65003;49.518;11.280;2023-02-01T15:56:58;5.80;86.40
76211;DHT22;65003;49.518;11.280;2023-02-01T15:59:29;5.60;86.50
76211;DHT22;65003;49.518;11.280;2023-02-01T16:01:52;5.70;86.90
76211;DHT22;65003;49.518;11.280;2023-02-01T16:04:22;5.60;86.50
76211;DHT22;65003;49.518;11.280;2023-02-01T16:06:51;5.60;85.80
76211;DHT22;65003;49.518;11.280;2023-02-01T16:09:20;5.60;85.60
76211;DHT22;65003;49.518;11.280;2023-02-01T16:11:48;5.70;85.70
76211;DHT22;65003;49.518;11.280;2023-02-01T16:14:13;5.60;84.90
76211;DHT22;65003;49.518;11.280;2023-02-01T16:16:40;5.60;85.60
76211;DHT22;65003;49.518;11.280;2023-02-01T16:19:06;5.50;84.90
76211;DHT22;65003;49.518;11.280;2023-02-01T16:21:33;5.50;84.50
76211;DHT22;65003;49.518;11.280;2023-02-01T16:24:00;5.50;84.60
76211;DHT22;65003;49.518;11.280;2023-02-01T16:26:26;5.50;84.40
76211;DHT22;65003;49.518;11.280;2023-02-01T16:28:53;5.50;84.10
76211;DHT22;65003;49.518;11.280;2023-02-01T16:31:21;5.50;84.30
76211;DHT22;65003;49.518;11.280;2023-02-01T16:33:50;5.60;83.80